createdAt,value
2022-09-30T00:04:36.015Z,99690.63
2022-09-30T00:09:38.891Z,99693.59
2022-09-30T00:14:41.561Z,99697.91
2022-09-30T00:19:46.665Z,99693.09
2022-09-30T00:24:50.422Z,99698.19
2022-09-30T00:29:53.933Z,99694.97
2022-09-30T00:34:57.813Z,99702.34
2022-09-30T00:40:00.629Z,99694.16
2022-09-30T00:45:07.194Z,99699.41
2022-09-30T00:50:28.490Z,99702.53
2022-09-30T00:55:37.374Z,99699.63
2022-09-30T01:00:40.338Z,99701.59
2022-09-30T01:05:44.808Z,99705.53
2022-09-30T01:10:47.812Z,99712.69
2022-09-30T01:16:07.241Z,99715.34
2022-09-30T01:21:35.344Z,99712.63
2022-09-30T01:26:53.271Z,99711.06
2022-09-30T01:32:07.196Z,99716.22
2022-09-30T01:37:18.911Z,99720.16
2022-09-30T01:42:29.239Z,99722.25
2022-09-30T01:47:42.271Z,99724.44
2022-09-30T01:52:51.054Z,99713.38
2022-09-30T01:57:58.234Z,99715.50
2022-09-30T02:03:06.742Z,99727.16
2022-09-30T02:08:16.947Z,99736.97
2022-09-30T02:13:23.484Z,99736.97
2022-09-30T02:18:31.760Z,99736.16
2022-09-30T02:23:40.771Z,99748.56
2022-09-30T02:28:47.395Z,99745.34
2022-09-30T02:33:55.640Z,99755.88
2022-09-30T02:39:04.082Z,99754.00
2022-09-30T02:44:07.292Z,99772.97
2022-09-30T02:49:21.602Z,99771.03
2022-09-30T02:54:32.155Z,99781.69
2022-09-30T02:59:34.809Z,99772.75
2022-09-30T03:04:42.074Z,99773.53
2022-09-30T03:09:45.100Z,99778.69
2022-09-30T03:15:04.449Z,99788.13
2022-09-30T03:20:31.121Z,99786.84
2022-09-30T03:25:44.625Z,99780.75
2022-09-30T03:30:53.736Z,99784.84
2022-09-30T03:36:02.688Z,99799.22
2022-09-30T03:41:12.665Z,99802.19
2022-09-30T03:46:23.184Z,99799.06
2022-09-30T03:51:29.382Z,99816.75
2022-09-30T03:56:32.136Z,99815.50
2022-09-30T04:01:34.732Z,99818.59
2022-09-30T04:06:38.669Z,99813.53
2022-09-30T04:11:41.387Z,99807.34
2022-09-30T04:16:44.009Z,99819.16
2022-09-30T04:21:48.053Z,99814.63
2022-09-30T04:26:51.113Z,99820.38
2022-09-30T04:31:53.945Z,99825.72
2022-09-30T04:36:57.972Z,99827.66
2022-09-30T04:42:00.673Z,99839.31
2022-09-30T04:47:03.562Z,99843.59
2022-09-30T04:52:07.858Z,99837.09
2022-09-30T04:57:10.446Z,99850.94
2022-09-30T05:02:13.776Z,99853.50
2022-09-30T05:07:18.058Z,99857.69
2022-09-30T05:12:24.039Z,99868.59
2022-09-30T05:17:26.800Z,99864.97
2022-09-30T05:22:30.725Z,99866.16
2022-09-30T05:27:33.520Z,99874.47
2022-09-30T05:32:36.209Z,99880.41
2022-09-30T05:37:40.494Z,99870.41
2022-09-30T05:42:47.259Z,99875.81
2022-09-30T05:47:52.911Z,99882.16
2022-09-30T05:52:57.454Z,99880.59
2022-09-30T05:57:59.887Z,99891.66
2022-09-30T06:03:02.469Z,99908.13
2022-09-30T06:08:07.437Z,99904.53
2022-09-30T06:13:10.799Z,99912.13
2022-09-30T06:18:17.700Z,99927.31
2022-09-30T06:23:21.863Z,99923.94
2022-09-30T06:28:25.244Z,99940.09
2022-09-30T06:33:27.953Z,99945.22
2022-09-30T06:38:32.137Z,99951.00
2022-09-30T06:43:44.865Z,99954.59
2022-09-30T06:49:09.763Z,99968.81
2022-09-30T06:54:16.465Z,99960.72
2022-09-30T06:59:19.296Z,99960.13
2022-09-30T07:04:22.107Z,99962.31
2022-09-30T07:09:26.255Z,99977.41
2022-09-30T07:14:31.396Z,99986.97
2022-09-30T07:19:35.125Z,100002.19
2022-09-30T07:24:39.027Z,99994.94
2022-09-30T07:30:07.265Z,99995.34
2022-09-30T07:35:06.213Z,100005.06
2022-09-30T07:40:11.288Z,99997.84
2022-09-30T07:45:15.998Z,99999.97
2022-09-30T07:50:18.826Z,100009.50
2022-09-30T07:55:22.956Z,100014.06
2022-09-30T08:05:48.611Z,100022.38
2022-09-30T08:10:52.589Z,100041.63
2022-09-30T08:15:55.265Z,100047.88
2022-09-30T08:20:58.366Z,100059.22
2022-09-30T08:26:08.015Z,100072.72
2022-09-30T08:31:13.140Z,100058.53
2022-09-30T08:36:18.290Z,100065.03
2022-09-30T08:41:41.796Z,100062.63
2022-09-30T08:46:47.554Z,100052.66
2022-09-30T08:51:52.651Z,100053.59
2022-09-30T08:56:57.497Z,100050.47
2022-09-30T09:02:03.303Z,100050.47
2022-09-30T09:07:11.581Z,100057.06
2022-09-30T09:12:29.050Z,100068.47
2022-09-30T09:17:50.291Z,100059.56
2022-09-30T09:23:11.477Z,100047.81
2022-09-30T09:28:27.197Z,100056.13
2022-09-30T09:33:31.990Z,100052.88
2022-09-30T09:38:41.591Z,100044.63
2022-09-30T09:43:58.337Z,100056.78
2022-09-30T09:49:30.565Z,100055.34
2022-09-30T09:54:36.588Z,100052.94
2022-09-30T09:59:58.486Z,100050.63
2022-09-30T10:05:03.043Z,100047.13
2022-09-30T10:10:23.006Z,100053.72
2022-09-30T10:15:28.152Z,100055.78
2022-09-30T10:20:33.300Z,100048.03
2022-09-30T10:25:36.724Z,100027.44
2022-09-30T10:30:56.781Z,100031.78
2022-09-30T10:36:09.753Z,100036.28
2022-09-30T10:41:12.821Z,100037.75
2022-09-30T10:46:26.807Z,100040.50
2022-09-30T10:51:36.275Z,100026.66
2022-09-30T10:56:43.137Z,100038.88
2022-09-30T11:01:53.748Z,100033.75
2022-09-30T11:07:02.988Z,100030.19
2022-09-30T11:12:16.180Z,100031.13
2022-09-30T11:17:41.126Z,100018.06
2022-09-30T11:22:53.738Z,100021.66
2022-09-30T11:28:14.920Z,100019.03
2022-09-30T11:33:32.278Z,100006.31
2022-09-30T11:38:54.625Z,100010.66
2022-09-30T11:44:09.112Z,100017.13
2022-09-30T11:49:39.091Z,100017.59
2022-09-30T11:54:55.103Z,100012.63
2022-09-30T12:00:02.468Z,100012.31
2022-09-30T12:05:12.892Z,100004.13
2022-09-30T12:10:22.100Z,100013.72
2022-09-30T12:15:26.962Z,100006.00
2022-09-30T12:20:35.179Z,100012.97
2022-09-30T12:25:42.999Z,100018.59
2022-09-30T12:30:47.826Z,100005.22
2022-09-30T12:36:07.315Z,100006.38
2022-09-30T12:41:40.873Z,100011.03
2022-09-30T12:46:59.276Z,100020.56
2022-09-30T12:52:08.165Z,100018.56
2022-09-30T12:57:11.574Z,100013.09
2022-09-30T13:02:31.731Z,100011.59
2022-09-30T13:07:36.199Z,100012.44
2022-09-30T13:12:44.112Z,100000.78
2022-09-30T13:17:47.000Z,100004.94
2022-09-30T13:23:01.515Z,99997.38
2022-09-30T13:28:30.685Z,100011.47
2022-09-30T13:33:46.263Z,100003.63
2022-09-30T13:39:07.959Z,99991.53
2022-09-30T13:44:16.448Z,100017.28
2022-09-30T13:49:24.845Z,100007.56
2022-09-30T13:54:33.986Z,100008.66
2022-09-30T13:59:49.182Z,100017.72
2022-09-30T14:05:06.475Z,100013.22
2022-09-30T14:10:23.535Z,99998.78
2022-09-30T14:15:48.247Z,100008.78
2022-09-30T14:21:06.438Z,100010.03
2022-09-30T14:26:26.010Z,100005.53
2022-09-30T14:31:32.259Z,100000.84
2022-09-30T14:36:35.622Z,99995.94
2022-09-30T14:41:41.132Z,100003.00
2022-09-30T14:46:46.682Z,100011.78
2022-09-30T14:51:50.133Z,100004.94
2022-09-30T14:56:54.531Z,100010.66
2022-09-30T15:02:00.591Z,100004.97
2022-09-30T15:07:07.203Z,100001.44
2022-09-30T15:12:16.072Z,100004.69
2022-09-30T15:17:20.367Z,100013.69
2022-09-30T15:22:24.799Z,99999.91
2022-09-30T15:27:31.577Z,100010.34
2022-09-30T15:32:36.579Z,100000.38
2022-09-30T15:37:39.744Z,100011.94
2022-09-30T15:42:53.919Z,100012.41
2022-09-30T15:47:59.171Z,100013.25
2022-09-30T15:53:06.140Z,100013.44
2022-09-30T15:58:37.868Z,100009.75
2022-09-30T16:03:47.487Z,100013.34
2022-09-30T16:08:54.953Z,100013.59
2022-09-30T16:14:00.204Z,100010.56
2022-09-30T16:19:04.672Z,100012.81
2022-09-30T16:24:43.889Z,100015.16
2022-09-30T16:29:48.241Z,100010.38
2022-09-30T16:34:50.964Z,100017.13
2022-09-30T16:39:56.611Z,100019.72
2022-09-30T16:45:01.883Z,100024.75
2022-09-30T16:50:16.624Z,100028.09
2022-09-30T16:55:19.565Z,100031.13
2022-09-30T17:00:23.755Z,100026.53
2022-09-30T17:05:27.542Z,100032.00
2022-09-30T17:10:33.334Z,100032.00
2022-09-30T17:15:37.689Z,100045.66
2022-09-30T17:20:45.172Z,100045.97
2022-09-30T17:25:48.414Z,100046.31
2022-09-30T17:30:52.446Z,100049.38
2022-09-30T17:36:00.425Z,100050.78
2022-09-30T17:41:21.320Z,100054.56
2022-09-30T17:46:25.579Z,100056.63
2022-09-30T17:51:28.362Z,100042.69
2022-09-30T17:56:32.088Z,100029.69
2022-09-30T18:01:41.400Z,100030.06
2022-09-30T18:06:44.112Z,100043.94
2022-09-30T18:11:46.998Z,100039.59
2022-09-30T18:16:51.070Z,100029.38
2022-09-30T18:21:54.023Z,100036.84
2022-09-30T18:26:56.704Z,100038.34
2022-09-30T18:32:01.110Z,100048.19
2022-09-30T18:37:06.485Z,100037.47
2022-09-30T18:42:09.394Z,100045.22
2022-09-30T18:47:16.206Z,100054.97
2022-09-30T18:52:18.947Z,100055.72
2022-09-30T18:57:21.610Z,100061.16
2022-09-30T19:02:27.191Z,100063.91
2022-09-30T19:07:29.988Z,100067.78
2022-09-30T19:12:35.827Z,100071.88
2022-09-30T19:17:40.009Z,100071.13
2022-09-30T19:22:43.451Z,100064.81
2022-09-30T19:27:46.667Z,100068.94
2022-09-30T19:32:56.500Z,100073.66
2022-09-30T19:38:03.074Z,100068.78
2022-09-30T19:43:08.095Z,100066.59
2022-09-30T19:48:12.059Z,100065.75
2022-09-30T19:53:27.383Z,100079.81
2022-09-30T19:58:33.426Z,100083.69
2022-09-30T20:03:37.417Z,100084.06
2022-09-30T20:08:40.522Z,100081.28
2022-09-30T20:13:43.508Z,100079.63
2022-09-30T20:18:47.448Z,100075.22
2022-09-30T20:23:50.540Z,100069.84
2022-09-30T20:29:00.967Z,100071.47
2022-09-30T20:34:06.017Z,100076.69
2022-09-30T20:39:09.129Z,100072.06
2022-09-30T20:44:13.077Z,100060.63
2022-09-30T20:49:17.106Z,100061.06
2022-09-30T20:54:19.747Z,100047.59
2022-09-30T20:59:23.136Z,100043.41
2022-09-30T21:04:27.070Z,100038.19
2022-09-30T21:09:30.619Z,100045.88
2022-09-30T21:14:33.235Z,100057.75
2022-09-30T21:19:40.320Z,100054.50
2022-09-30T21:24:43.104Z,100059.75
2022-09-30T21:29:45.730Z,100058.09
2022-09-30T21:34:49.697Z,100066.78
2022-09-30T21:39:52.351Z,100064.44
2022-09-30T21:44:55.542Z,100078.53
2022-09-30T21:50:06.424Z,100068.75
2022-09-30T21:55:11.717Z,100068.25
2022-09-30T22:00:14.646Z,100069.72
2022-09-30T22:05:20.712Z,100079.41
2022-09-30T22:10:23.307Z,100085.88
2022-09-30T22:15:26.023Z,100079.56
2022-09-30T22:20:30.450Z,100077.50
2022-09-30T22:25:33.288Z,100085.25
2022-09-30T22:30:36.071Z,100073.19
2022-09-30T22:35:59.816Z,100079.91
2022-09-30T22:41:02.895Z,100075.16
2022-09-30T22:46:07.924Z,100067.06
2022-09-30T22:51:16.885Z,100056.81
2022-09-30T22:56:20.084Z,100053.94
2022-09-30T23:01:23.073Z,100051.06
2022-09-30T23:06:27.121Z,100044.03
2022-09-30T23:11:29.932Z,100049.47
2022-09-30T23:16:32.835Z,100051.38
2022-09-30T23:21:37.411Z,100055.13
2022-09-30T23:26:40.261Z,100051.38
2022-09-30T23:31:43.155Z,100036.16
2022-09-30T23:36:47.406Z,100038.06
2022-09-30T23:41:50.776Z,100032.34
2022-09-30T23:47:11.099Z,100031.25
2022-09-30T23:52:16.094Z,100034.28
2022-09-30T23:57:18.666Z,100037.25
